createdAt,value
2023-03-15T00:02:10.538Z,94244.00
2023-03-15T00:06:10.609Z,94236.00
2023-03-15T00:10:10.696Z,94254.00
2023-03-15T00:14:10.865Z,94267.00
2023-03-15T00:18:10.992Z,94267.00
2023-03-15T00:22:11.131Z,94250.00
2023-03-15T00:26:11.289Z,94244.00
2023-03-15T00:30:11.396Z,94232.00
2023-03-15T00:34:11.559Z,94234.00
2023-03-15T00:38:11.667Z,94244.00
2023-03-15T00:42:11.845Z,94244.00
2023-03-15T00:46:12.025Z,94240.00
2023-03-15T00:50:12.104Z,94230.00
2023-03-15T00:54:12.260Z,94230.00
2023-03-15T00:58:12.390Z,94222.00
2023-03-15T01:02:12.513Z,94214.00
2023-03-15T01:06:12.674Z,94212.00
2023-03-15T01:10:12.807Z,94220.00
2023-03-15T01:14:12.957Z,94214.00
2023-03-15T01:18:13.102Z,94212.00
2023-03-15T01:22:13.261Z,94210.00
2023-03-15T01:26:13.404Z,94212.00
2023-03-15T01:30:13.588Z,94212.00
2023-03-15T01:34:13.760Z,94216.00
2023-03-15T01:38:13.894Z,94210.00
2023-03-15T01:42:14.056Z,94203.00
2023-03-15T01:46:14.243Z,94203.00
2023-03-15T01:50:14.378Z,94203.00
2023-03-15T01:54:14.559Z,94201.00
2023-03-15T01:58:14.721Z,94197.00
2023-03-15T02:02:15.080Z,94197.00
2023-03-15T02:06:15.015Z,94191.00
2023-03-15T02:10:15.156Z,94183.00
2023-03-15T02:14:15.317Z,94181.00
2023-03-15T02:18:15.487Z,94189.00
2023-03-15T02:22:15.678Z,94201.00
2023-03-15T02:26:15.850Z,94210.00
2023-03-15T02:30:16.057Z,94230.00
2023-03-15T02:34:16.167Z,94246.00
2023-03-15T02:38:16.340Z,94255.00
2023-03-15T02:42:16.509Z,94263.00
2023-03-15T02:46:16.697Z,94289.00
2023-03-15T02:50:16.802Z,94297.00
2023-03-15T02:54:16.982Z,94295.00
2023-03-15T02:58:17.161Z,94324.00
2023-03-15T03:02:17.762Z,94328.00
2023-03-15T03:06:17.476Z,94322.00
2023-03-15T03:10:17.617Z,94336.00
2023-03-15T03:14:17.814Z,94349.00
2023-03-15T03:18:17.989Z,94357.00
2023-03-15T03:22:18.230Z,94357.00
2023-03-15T03:26:18.329Z,94363.00
2023-03-15T03:30:18.537Z,94361.00
2023-03-15T03:34:18.696Z,94365.00
2023-03-15T03:38:18.868Z,94369.00
2023-03-15T03:42:19.076Z,94387.00
2023-03-15T03:46:19.267Z,94398.00
2023-03-15T03:50:19.399Z,94400.00
2023-03-15T03:54:19.571Z,94416.00
2023-03-15T03:58:19.751Z,94416.00
2023-03-15T04:02:19.973Z,94441.00
2023-03-15T04:06:20.068Z,94430.00
2023-03-15T04:10:20.282Z,94449.00
2023-03-15T04:14:20.475Z,94475.00
2023-03-15T04:18:20.641Z,94465.00
2023-03-15T04:22:20.821Z,94489.00
2023-03-15T04:26:21.024Z,94475.00
2023-03-15T04:30:21.197Z,94508.00
2023-03-15T04:34:21.431Z,94520.00
2023-03-15T04:38:21.643Z,94524.00
2023-03-15T04:42:21.834Z,94532.00
2023-03-15T04:46:24.797Z,94528.00
2023-03-15T04:50:22.018Z,94536.00
2023-03-15T04:54:22.026Z,94543.00
2023-03-15T04:58:21.983Z,94543.00
2023-03-15T05:02:21.927Z,94538.00
2023-03-15T05:06:21.880Z,94557.00
2023-03-15T05:10:21.857Z,94563.00
2023-03-15T05:14:21.783Z,94567.00
2023-03-15T05:18:21.804Z,94567.00
2023-03-15T05:22:21.754Z,94575.00
2023-03-15T05:26:21.719Z,94589.00
2023-03-15T05:30:21.820Z,94608.00
2023-03-15T05:34:22.309Z,94606.00
2023-03-15T05:38:22.072Z,94612.00
2023-03-15T05:42:22.073Z,94642.00
2023-03-15T05:46:21.950Z,94649.00
2023-03-15T05:50:21.947Z,94653.00
2023-03-15T05:54:21.880Z,94667.00
2023-03-15T05:58:21.839Z,94669.00
2023-03-15T06:02:21.847Z,94685.00
2023-03-15T06:06:21.767Z,94692.00
2023-03-15T06:10:21.769Z,94681.00
2023-03-15T06:14:21.809Z,94696.00
2023-03-15T06:18:22.027Z,94710.00
2023-03-15T06:22:21.998Z,94718.00
2023-03-15T06:26:21.951Z,94732.00
2023-03-15T06:30:21.919Z,94745.00
2023-03-15T06:34:21.934Z,94749.00
2023-03-15T06:38:21.866Z,94765.00
2023-03-15T06:42:22.305Z,94773.00
2023-03-15T06:46:21.868Z,94773.00
2023-03-15T06:50:21.834Z,94786.00
2023-03-15T06:54:21.719Z,94783.00
2023-03-15T06:58:21.785Z,94798.00
2023-03-15T07:02:21.833Z,94804.00
2023-03-15T07:06:21.640Z,94814.00
2023-03-15T07:10:21.576Z,94830.00
2023-03-15T07:14:21.815Z,94834.00
2023-03-15T07:18:21.684Z,94822.00
2023-03-15T07:22:21.744Z,94853.00
2023-03-15T07:26:21.834Z,94857.00
2023-03-15T07:30:21.904Z,94873.00
2023-03-15T07:34:21.926Z,94865.00
2023-03-15T07:38:22.349Z,94885.00
2023-03-15T07:42:22.330Z,94906.00
2023-03-15T07:46:21.952Z,94918.00
2023-03-15T07:50:22.311Z,94894.00
2023-03-15T07:54:22.033Z,94924.00
2023-03-15T07:58:22.340Z,94916.00
2023-03-15T08:02:21.996Z,94914.00
2023-03-15T08:06:21.917Z,94904.00
2023-03-15T08:10:21.888Z,94912.00
2023-03-15T08:14:21.854Z,94908.00
2023-03-15T08:18:21.804Z,94908.00
2023-03-15T08:22:21.752Z,94912.00
2023-03-15T08:26:21.759Z,94910.00
2023-03-15T08:30:22.374Z,94920.00
2023-03-15T08:34:22.101Z,94912.00
2023-03-15T08:38:22.376Z,94910.00
2023-03-15T08:42:22.535Z,94914.00
2023-03-15T08:46:22.893Z,94906.00
2023-03-15T08:50:23.372Z,94904.00
2023-03-15T08:54:23.126Z,94898.00
2023-03-15T08:58:23.084Z,94902.00
2023-03-15T09:02:23.439Z,94902.00
2023-03-15T09:06:23.004Z,94896.00
2023-03-15T09:10:22.993Z,94900.00
2023-03-15T09:14:22.991Z,94885.00
2023-03-15T09:18:22.932Z,94879.00
2023-03-15T09:22:38.126Z,94877.00
2023-03-15T09:26:23.876Z,94873.00
2023-03-15T09:30:22.839Z,94867.00
2023-03-15T09:34:23.542Z,94875.00
2023-03-15T09:38:22.901Z,94877.00
2023-03-15T09:42:22.888Z,94873.00
2023-03-15T09:46:23.439Z,94865.00
2023-03-15T09:50:22.931Z,94879.00
2023-03-15T09:54:22.890Z,94873.00
2023-03-15T09:58:22.892Z,94873.00
2023-03-15T10:02:22.767Z,94877.00
2023-03-15T10:06:22.727Z,94879.00
2023-03-15T10:10:22.744Z,94877.00
2023-03-15T10:14:22.655Z,94877.00
2023-03-15T10:18:22.641Z,94869.00
2023-03-15T10:22:22.896Z,94877.00
2023-03-15T10:26:22.543Z,94875.00
2023-03-15T10:30:22.548Z,94873.00
2023-03-15T10:34:22.642Z,94867.00
2023-03-15T10:38:22.954Z,94865.00
2023-03-15T10:42:22.957Z,94871.00
2023-03-15T10:46:23.479Z,94865.00
2023-03-15T10:50:22.866Z,94855.00
2023-03-15T10:54:22.949Z,94857.00
2023-03-15T10:58:24.812Z,94859.00
2023-03-15T11:02:22.782Z,94859.00
2023-03-15T11:06:22.772Z,94863.00
2023-03-15T11:10:22.937Z,94861.00
2023-03-15T11:14:22.678Z,94855.00
2023-03-15T11:18:22.644Z,94851.00
2023-03-15T11:22:22.621Z,94849.00
2023-03-15T11:26:32.351Z,94849.00
2023-03-15T11:30:23.564Z,94847.00
2023-03-15T11:34:22.548Z,94853.00
2023-03-15T11:38:22.921Z,94849.00
2023-03-15T11:42:22.948Z,94851.00
2023-03-15T11:46:22.521Z,94843.00
2023-03-15T11:50:22.505Z,94838.00
2023-03-15T11:54:22.929Z,94839.00
2023-03-15T11:58:22.671Z,94839.00
2023-03-15T12:02:22.666Z,94818.00
2023-03-15T12:06:22.637Z,94822.00
2023-03-15T12:10:22.920Z,94824.00
2023-03-15T12:14:22.527Z,94834.00
2023-03-15T12:18:22.481Z,94816.00
2023-03-15T12:22:22.473Z,94824.00
2023-03-15T12:26:22.440Z,94806.00
2023-03-15T12:30:22.473Z,94802.00
2023-03-15T12:34:22.444Z,94810.00
2023-03-15T12:38:22.328Z,94806.00
2023-03-15T12:42:22.309Z,94804.00
2023-03-15T12:46:22.273Z,94804.00
2023-03-15T12:50:22.460Z,94798.00
2023-03-15T12:54:22.589Z,94802.00
2023-03-15T12:58:22.814Z,94804.00
2023-03-15T13:02:29.520Z,94802.00
2023-03-15T13:06:23.970Z,94808.00
2023-03-15T13:10:22.985Z,94804.00
2023-03-15T13:14:23.148Z,94800.00
2023-03-15T13:18:23.127Z,94810.00
2023-03-15T13:22:23.088Z,94816.00
2023-03-15T13:26:23.067Z,94816.00
2023-03-15T13:30:23.035Z,94810.00
2023-03-15T13:34:22.950Z,94802.00
2023-03-15T13:38:22.953Z,94798.00
2023-03-15T13:42:22.884Z,94796.00
2023-03-15T13:46:23.076Z,94792.00
2023-03-15T13:50:22.832Z,94796.00
2023-03-15T13:54:22.798Z,94806.00
2023-03-15T13:58:22.994Z,94808.00
2023-03-15T14:02:22.979Z,94810.00
2023-03-15T14:06:22.937Z,94812.00
2023-03-15T14:10:22.902Z,94822.00
2023-03-15T14:14:22.883Z,94822.00
2023-03-15T14:18:22.880Z,94816.00
2023-03-15T14:22:22.818Z,94828.00
2023-03-15T14:26:22.771Z,94820.00
2023-03-15T14:30:22.736Z,94824.00
2023-03-15T14:34:22.679Z,94826.00
2023-03-15T14:38:22.662Z,94822.00
2023-03-15T14:42:22.658Z,94832.00
2023-03-15T14:46:22.639Z,94838.00
2023-03-15T14:50:22.614Z,94845.00
2023-03-15T14:54:22.534Z,94853.00
2023-03-15T14:58:22.481Z,94853.00
2023-03-15T15:02:22.594Z,94853.00
2023-03-15T15:06:22.521Z,94853.00
2023-03-15T15:10:22.539Z,94861.00
2023-03-15T15:14:22.492Z,94855.00
2023-03-15T15:18:22.537Z,94867.00
2023-03-15T15:22:23.003Z,94865.00
2023-03-15T15:26:22.549Z,94873.00
2023-03-15T15:30:22.559Z,94867.00
2023-03-15T15:34:22.551Z,94861.00
2023-03-15T15:38:22.577Z,94869.00
2023-03-15T15:42:22.584Z,94871.00
2023-03-15T15:46:22.708Z,94873.00
2023-03-15T15:50:22.757Z,94877.00
2023-03-15T15:54:22.915Z,94892.00
2023-03-15T15:58:23.010Z,94900.00
2023-03-15T16:02:23.397Z,94900.00
2023-03-15T16:06:23.238Z,94902.00
2023-03-15T16:10:23.400Z,94904.00
2023-03-15T16:14:23.564Z,94908.00
2023-03-15T16:18:23.744Z,94910.00
2023-03-15T16:22:23.927Z,94916.00
2023-03-15T16:26:24.111Z,94922.00
2023-03-15T16:30:24.313Z,94931.00
2023-03-15T16:34:24.498Z,94935.00
2023-03-15T16:38:24.865Z,94941.00
2023-03-15T16:42:24.919Z,94951.00
2023-03-15T16:46:25.156Z,94953.00
2023-03-15T16:50:25.124Z,94967.00
2023-03-15T16:54:40.305Z,94967.00
2023-03-15T16:58:25.988Z,94973.00
2023-03-15T17:02:24.991Z,94975.00
2023-03-15T17:06:25.176Z,94978.00
2023-03-15T17:10:25.126Z,94988.00
2023-03-15T17:14:25.100Z,94994.00
2023-03-15T17:18:25.082Z,94998.00
2023-03-15T17:22:25.083Z,95002.00
2023-03-15T17:26:24.982Z,95012.00
2023-03-15T17:30:24.978Z,95020.00
2023-03-15T17:34:24.944Z,95022.00
2023-03-15T17:38:24.917Z,95028.00
2023-03-15T17:42:24.855Z,95028.00
2023-03-15T17:46:24.889Z,95032.00
2023-03-15T17:50:24.805Z,95035.00
2023-03-15T17:54:24.772Z,95039.00
2023-03-15T17:58:24.718Z,95039.00
2023-03-15T18:02:24.713Z,95033.00
2023-03-15T18:06:24.685Z,95037.00
2023-03-15T18:10:24.619Z,95045.00
2023-03-15T18:14:24.598Z,95051.00
2023-03-15T18:18:24.552Z,95053.00
2023-03-15T18:22:24.546Z,95055.00
2023-03-15T18:26:24.512Z,95059.00
2023-03-15T18:30:24.467Z,95061.00
2023-03-15T18:34:24.432Z,95059.00
2023-03-15T18:38:24.427Z,95067.00
2023-03-15T18:42:24.367Z,95071.00
2023-03-15T18:46:24.467Z,95061.00
2023-03-15T18:50:24.292Z,95065.00
2023-03-15T18:54:24.241Z,95065.00
2023-03-15T18:58:24.210Z,95069.00
2023-03-15T19:02:24.183Z,95075.00
2023-03-15T19:06:24.119Z,95079.00
2023-03-15T19:10:24.117Z,95088.00
2023-03-15T19:14:24.221Z,95090.00
2023-03-15T19:18:24.253Z,95092.00
2023-03-15T19:22:24.361Z,95094.00
2023-03-15T19:26:24.401Z,95096.00
2023-03-15T19:30:24.458Z,95102.00
2023-03-15T19:34:24.549Z,95106.00
2023-03-15T19:38:24.663Z,95102.00
2023-03-15T19:42:24.737Z,95106.00
2023-03-15T19:46:24.892Z,95110.00
2023-03-15T19:50:24.943Z,95114.00
2023-03-15T19:54:25.019Z,95106.00
2023-03-15T19:58:25.135Z,95106.00
2023-03-15T20:02:25.254Z,95112.00
2023-03-15T20:06:25.414Z,95114.00
2023-03-15T20:10:25.553Z,95108.00
2023-03-15T20:14:25.652Z,95106.00
2023-03-15T20:18:25.813Z,95106.00
2023-03-15T20:22:25.939Z,95108.00
2023-03-15T20:26:26.080Z,95110.00
2023-03-15T20:30:26.208Z,95118.00
2023-03-15T20:34:26.371Z,95114.00
2023-03-15T20:38:26.521Z,95118.00
2023-03-15T20:42:26.629Z,95122.00
2023-03-15T20:46:26.918Z,95120.00
2023-03-15T20:50:26.921Z,95122.00
2023-03-15T20:54:27.062Z,95133.00
2023-03-15T20:58:27.170Z,95141.00
2023-03-15T21:02:27.332Z,95139.00
2023-03-15T21:06:27.473Z,95155.00
2023-03-15T21:10:27.601Z,95157.00
2023-03-15T21:14:27.736Z,95161.00
2023-03-15T21:18:27.878Z,95159.00
2023-03-15T21:22:27.984Z,95163.00
2023-03-15T21:26:28.079Z,95169.00
2023-03-15T21:30:28.241Z,95163.00
2023-03-15T21:34:28.348Z,95163.00
2023-03-15T21:38:28.456Z,95155.00
2023-03-15T21:42:28.578Z,95155.00
2023-03-15T21:46:28.762Z,95155.00
2023-03-15T21:50:28.805Z,95157.00
2023-03-15T21:54:28.928Z,95161.00
2023-03-15T21:58:29.044Z,95159.00
2023-03-15T22:02:29.170Z,95165.00
2023-03-15T22:06:29.357Z,95165.00
2023-03-15T22:10:29.436Z,95169.00
2023-03-15T22:14:29.601Z,95167.00
2023-03-15T22:18:29.714Z,95163.00
2023-03-15T22:22:29.870Z,95171.00
2023-03-15T22:26:29.997Z,95173.00
2023-03-15T22:30:30.161Z,95173.00
2023-03-15T22:34:30.296Z,95171.00
2023-03-15T22:38:30.417Z,95177.00
2023-03-15T22:42:30.578Z,95184.00
2023-03-15T22:46:32.530Z,95186.00
2023-03-15T22:50:30.641Z,95190.00
2023-03-15T22:54:30.676Z,95200.00
2023-03-15T22:58:30.586Z,95204.00
2023-03-15T23:02:30.536Z,95198.00
2023-03-15T23:06:30.541Z,95198.00
2023-03-15T23:10:30.492Z,95200.00
2023-03-15T23:14:30.427Z,95204.00
2023-03-15T23:18:30.403Z,95208.00
2023-03-15T23:22:30.421Z,95196.00
2023-03-15T23:26:30.611Z,95200.00
2023-03-15T23:30:30.813Z,95208.00
2023-03-15T23:34:30.955Z,95216.00
2023-03-15T23:38:31.147Z,95220.00
2023-03-15T23:42:31.367Z,95210.00
2023-03-15T23:46:31.588Z,95218.00
2023-03-15T23:50:31.810Z,95226.00
2023-03-15T23:54:31.959Z,95237.00
2023-03-15T23:58:32.169Z,95229.00
